METAR rapporter

 

EKAH - Tirstrup (civ/Mi, Denmark
Afstand fra stationen: SSV 25km
Opdateret: 25/01/2021 23:20
Mest skyet
Mest skyet
 Vind fra calm
Vind: Vindstille
Temperatur: -1°C
Dugpunkt: -1°C
Fugtighed: 100%
Barometer: 1005 hPa
Skydække: Mest skyet
Sigtbarhed: 10 km
Skyhøjde: Få skyer 975 m
Mest skyet 1890 m
2021/01/25 22:20 EKAH 252220Z AUTO 00000KT 9999 FEW032/// BKN062/// M01/M01 Q1005
EKYT - Alborg, Denmark
Afstand fra stationen: NV 91km
Opdateret: 25/01/2021 23:35
Tåge, Overskyet
Tåge, Overskyet
 Vind fra calm
Vind: Vindstille
Temperatur: -2°C
Dugpunkt: -2°C
Fugtighed: 100%
Barometer: 1005 hPa
Oversigt: Tåge
Skydække: Overskyet
Sigtbarhed: 0 km
Skyhøjde: Overskyet 30 m
2021/01/25 22:35 EKYT 252235Z AUTO 00000KT 0100 R08L/0550N R26R/0325N FG VV001 M02/M02 Q1005 R26L/710195
EKKA - Karup (dan-Afb), Denmark
Afstand fra stationen: V 107km
Opdateret: 25/01/2021 23:21
Let Tåge, Mest skyet
Let Tåge, Mest skyet
 Vind fra NNØ
Vind: NNØ 2 km/h
Temperatur: -2°C
Dugpunkt: -3°C
Fugtighed: 93%
Barometer: 1005 hPa
Oversigt: Let Tåge
Skydække: Mest skyet
Sigtbarhed: 5 km
Skyhøjde: Delvist skyet 975 m
Mest skyet 4267 m
2021/01/25 22:21 EKKA 252221Z AUTO 03001KT 4800 BR SCT032/// BKN140/// M02/M03 Q1005 R27L/790094
 
EKOD - Odense/Beldringe, Denmark
Afstand fra stationen: SSV 116km
Opdateret: 25/01/2021 16:50
Ikke opdateret
Mest skyet
Mest skyet
 Vind fra NV
Vind: NV 15 km/h
Temperatur: 2°C
Kuldeindeks: -2°C
Dugpunkt: 1°C
Fugtighed: 93%
Barometer: 1002 hPa
Skydække: Mest skyet
Sigtbarhed: 10 km
Skyhøjde: Mest skyet 396 m
Mest skyet 518 m
2021/01/25 15:50 EKOD 251550Z 32008KT 9999 BKN013 BKN017 02/01 Q1002
EKBI - Billund Airport, Denmark
Afstand fra stationen: SV 134km
Opdateret: 25/01/2021 23:20
Tågebanker, Delvist skyet
Tågebanker, Delvist skyet
 Vind fra calm
Vind: Vindstille
Temperatur: -3°C
Dugpunkt: -4°C
Fugtighed: 93%
Barometer: 1005 hPa
Oversigt: Tågebanker
Skydække: Delvist skyet
Sigtbarhed: 1 km
2021/01/25 22:20 EKBI 252220Z 00000KT 1300 R09/0750D R27/P1500N BCFG NSC M03/M04 Q1005 R09/310195
EKCH - Copenhagen/Kastr, Denmark
Afstand fra stationen: SØ 148km
Opdateret: 25/01/2021 23:20
Mest skyet
Mest skyet
 Vind fra VNV
Vind: VNV 9 km/h
Temperatur: 2°C
Kuldeindeks: -1°C
Dugpunkt: 1°C
Fugtighed: 93%
Barometer: 1004 hPa
Skydække: Mest skyet
Sigtbarhed: 8 km
Skyhøjde: Få skyer 274 m
Mest skyet 1250 m
2021/01/25 22:20 EKCH 252220Z 29005KT 8000 FEW009 BKN041 02/01 Q1004 TEMPO BKN008